createdAt,value
2024-02-02T00:00:17.446Z,35.27
2024-02-02T00:01:17.504Z,35.29
2024-02-02T00:02:17.493Z,35.31
2024-02-02T00:03:17.651Z,35.27
2024-02-02T00:04:17.600Z,35.25
2024-02-02T00:05:17.641Z,35.28
2024-02-02T00:06:17.795Z,35.29
2024-02-02T00:07:17.773Z,35.27
2024-02-02T00:08:17.810Z,35.30
2024-02-02T00:09:17.932Z,35.28
2024-02-02T00:10:17.888Z,35.24
2024-02-02T00:11:17.937Z,35.28
2024-02-02T00:12:18.052Z,35.25
2024-02-02T00:13:18.067Z,35.31
2024-02-02T00:14:18.117Z,35.25
2024-02-02T00:15:18.226Z,35.28
2024-02-02T00:16:18.247Z,35.28
2024-02-02T00:17:18.292Z,35.24
2024-02-02T00:18:18.516Z,35.28
2024-02-02T00:19:18.526Z,35.24
2024-02-02T00:20:18.560Z,35.26
2024-02-02T00:21:18.533Z,35.25
2024-02-02T00:22:18.618Z,35.21
2024-02-02T00:23:18.665Z,35.22
2024-02-02T00:24:18.698Z,35.25
2024-02-02T00:25:18.714Z,35.28
2024-02-02T00:26:18.779Z,35.28
2024-02-02T00:27:18.911Z,35.25
2024-02-02T00:28:18.878Z,35.25
2024-02-02T00:29:18.934Z,35.28
2024-02-02T00:30:19.041Z,35.29
2024-02-02T00:31:19.049Z,35.21
2024-02-02T00:32:19.058Z,35.29
2024-02-02T00:33:19.256Z,35.26
2024-02-02T00:34:19.261Z,35.26
2024-02-02T00:35:19.219Z,35.22
2024-02-02T00:36:19.382Z,35.26
2024-02-02T00:37:19.341Z,35.26
2024-02-02T00:38:19.415Z,35.28
2024-02-02T00:39:19.527Z,35.25
2024-02-02T00:40:21.093Z,35.22
2024-02-02T00:41:19.581Z,35.25
2024-02-02T00:42:19.677Z,35.22
2024-02-02T00:43:19.677Z,35.24
2024-02-02T00:44:19.722Z,35.23
2024-02-02T00:45:19.834Z,35.24
2024-02-02T00:46:19.841Z,35.24
2024-02-02T00:47:19.908Z,35.22
2024-02-02T00:48:20.182Z,35.21
2024-02-02T00:49:20.072Z,35.19
2024-02-02T00:50:21.034Z,35.20
2024-02-02T00:51:20.178Z,35.22
2024-02-02T00:52:20.164Z,35.14
2024-02-02T00:53:21.057Z,35.19
2024-02-02T00:54:20.308Z,35.19
2024-02-02T00:55:20.332Z,35.19
2024-02-02T00:56:20.388Z,35.17
2024-02-02T00:57:20.437Z,35.19
2024-02-02T00:58:20.465Z,35.17
2024-02-02T00:59:20.526Z,35.22
2024-02-02T01:00:20.585Z,35.17
2024-02-02T01:01:20.666Z,35.22
2024-02-02T01:02:20.704Z,35.20
2024-02-02T01:03:20.756Z,35.19
2024-02-02T01:04:20.764Z,35.17
2024-02-02T01:05:20.815Z,35.19
2024-02-02T01:06:20.897Z,35.15
2024-02-02T01:07:20.935Z,35.17
2024-02-02T01:08:20.935Z,35.14
2024-02-02T01:09:21.061Z,35.19
2024-02-02T01:10:21.062Z,35.14
2024-02-02T01:11:21.141Z,35.17
2024-02-02T01:12:21.223Z,35.19
2024-02-02T01:13:21.261Z,35.16
2024-02-02T01:14:21.289Z,35.22
2024-02-02T01:15:21.402Z,35.15
2024-02-02T01:16:21.393Z,35.16
2024-02-02T01:17:21.501Z,35.14
2024-02-02T01:18:21.615Z,35.14
2024-02-02T01:19:21.650Z,35.15
2024-02-02T01:20:21.645Z,35.15
2024-02-02T01:21:21.713Z,35.15
2024-02-02T01:22:21.714Z,35.16
2024-02-02T01:23:21.787Z,35.13
2024-02-02T01:24:21.864Z,35.12
2024-02-02T01:25:21.857Z,35.15
2024-02-02T01:26:21.955Z,35.11
2024-02-02T01:27:22.027Z,35.12
2024-02-02T01:28:21.977Z,35.12
2024-02-02T01:29:22.025Z,35.13
2024-02-02T01:30:22.137Z,35.06
2024-02-02T01:31:22.153Z,35.09
2024-02-02T01:32:22.516Z,35.13
2024-02-02T01:33:22.425Z,35.11
2024-02-02T01:34:22.534Z,35.11
2024-02-02T01:35:22.337Z,35.16
2024-02-02T01:36:22.386Z,35.13
2024-02-02T01:37:22.461Z,35.08
2024-02-02T01:38:22.451Z,35.06
2024-02-02T01:39:22.621Z,35.06
2024-02-02T01:40:22.529Z,35.12
2024-02-02T01:41:22.570Z,35.13
2024-02-02T01:42:22.635Z,35.14
2024-02-02T01:43:22.675Z,35.11
2024-02-02T01:44:22.694Z,35.08
2024-02-02T01:45:22.782Z,35.10
2024-02-02T01:46:22.802Z,35.10
2024-02-02T01:47:22.859Z,35.12
2024-02-02T01:48:22.945Z,35.13
2024-02-02T01:49:23.013Z,35.13
2024-02-02T01:50:22.929Z,35.09
2024-02-02T01:51:23.060Z,35.14
2024-02-02T01:52:23.045Z,35.12
2024-02-02T01:53:23.091Z,35.12
2024-02-02T01:54:23.149Z,35.09
2024-02-02T01:55:23.164Z,35.12
2024-02-02T01:56:23.186Z,35.12
2024-02-02T01:57:23.241Z,35.12
2024-02-02T01:58:23.226Z,35.10
2024-02-02T01:59:23.299Z,35.06
2024-02-02T02:00:23.343Z,35.08
2024-02-02T02:01:23.400Z,35.09
2024-02-02T02:02:23.350Z,35.10
2024-02-02T02:03:23.452Z,35.06
2024-02-02T02:04:23.497Z,35.08
2024-02-02T02:05:23.472Z,35.05
2024-02-02T02:06:23.509Z,35.10
2024-02-02T02:07:23.550Z,35.03
2024-02-02T02:08:23.557Z,35.05
2024-02-02T02:09:23.657Z,35.05
2024-02-02T02:10:23.671Z,35.07
2024-02-02T02:11:23.676Z,35.03
2024-02-02T02:12:23.756Z,35.07
2024-02-02T02:13:23.708Z,35.06
2024-02-02T02:14:23.743Z,35.06
2024-02-02T02:15:23.794Z,35.06
2024-02-02T02:16:23.825Z,35.03
2024-02-02T02:17:23.837Z,35.08
2024-02-02T02:18:23.937Z,35.05
2024-02-02T02:19:24.014Z,35.07
2024-02-02T02:20:24.055Z,35.02
2024-02-02T02:21:23.980Z,35.06
2024-02-02T02:22:23.972Z,35.02
2024-02-02T02:23:23.979Z,35.07
2024-02-02T02:24:24.071Z,35.04
2024-02-02T02:25:24.094Z,35.06
2024-02-02T02:26:24.092Z,34.99
2024-02-02T02:27:24.175Z,35.03
2024-02-02T02:28:24.201Z,35.05
2024-02-02T02:29:24.232Z,35.02
2024-02-02T02:30:24.327Z,35.03
2024-02-02T02:31:24.379Z,35.05
2024-02-02T02:32:24.395Z,35.02
2024-02-02T02:33:24.490Z,35.00
2024-02-02T02:34:24.585Z,34.98
2024-02-02T02:35:24.497Z,35.00
2024-02-02T02:36:24.609Z,34.96
2024-02-02T02:37:24.587Z,35.04
2024-02-02T02:38:24.652Z,35.03
2024-02-02T02:39:24.758Z,35.03
2024-02-02T02:40:24.757Z,35.03
2024-02-02T02:41:24.797Z,34.99
2024-02-02T02:42:24.899Z,34.99
2024-02-02T02:43:24.865Z,34.98
2024-02-02T02:44:24.954Z,34.92
2024-02-02T02:45:25.013Z,35.00
2024-02-02T02:46:25.040Z,34.90
2024-02-02T02:47:25.080Z,34.87
2024-02-02T02:48:25.270Z,34.87
2024-02-02T02:49:25.319Z,34.86
2024-02-02T02:50:25.231Z,34.82
2024-02-02T02:51:25.302Z,34.79
2024-02-02T02:52:25.344Z,34.77
2024-02-02T02:53:25.352Z,34.74
2024-02-02T02:54:25.519Z,34.72
2024-02-02T02:55:25.525Z,34.69
2024-02-02T02:56:25.587Z,34.70
2024-02-02T02:57:25.612Z,34.67
2024-02-02T02:58:25.677Z,34.64
2024-02-02T02:59:25.685Z,34.58
2024-02-02T03:00:25.810Z,34.58
2024-02-02T03:01:25.858Z,34.58
2024-02-02T03:02:25.875Z,34.52
2024-02-02T03:03:25.945Z,34.52
2024-02-02T03:04:26.036Z,34.50
2024-02-02T03:05:26.024Z,34.48
2024-02-02T03:06:26.160Z,34.49
2024-02-02T03:07:26.101Z,34.41
2024-02-02T03:08:26.170Z,34.44
2024-02-02T03:09:26.274Z,34.39
2024-02-02T03:10:26.278Z,34.39
2024-02-02T03:11:26.329Z,34.35
2024-02-02T03:12:26.423Z,34.36
2024-02-02T03:13:26.441Z,34.34
2024-02-02T03:14:26.483Z,34.36
2024-02-02T03:15:26.574Z,34.29
2024-02-02T03:16:26.616Z,34.28
2024-02-02T03:17:26.699Z,34.28
2024-02-02T03:18:26.836Z,34.25
2024-02-02T03:19:26.860Z,34.25
2024-02-02T03:20:26.856Z,34.25
2024-02-02T03:21:27.010Z,34.27
2024-02-02T03:22:27.035Z,34.24
2024-02-02T03:23:27.010Z,34.18
2024-02-02T03:24:27.115Z,34.19
2024-02-02T03:25:27.137Z,34.18
2024-02-02T03:26:27.186Z,34.18
2024-02-02T03:27:27.272Z,34.16
2024-02-02T03:28:27.293Z,34.16
2024-02-02T03:29:27.353Z,34.18
2024-02-02T03:30:27.428Z,34.13
2024-02-02T03:31:27.461Z,34.09
2024-02-02T03:32:27.543Z,34.13
2024-02-02T03:33:27.677Z,34.08
2024-02-02T03:34:27.715Z,34.08
2024-02-02T03:35:27.657Z,34.10
2024-02-02T03:36:27.782Z,34.09
2024-02-02T03:37:30.781Z,34.07
2024-02-02T03:38:27.788Z,34.03
2024-02-02T03:39:27.805Z,34.04
2024-02-02T03:40:27.776Z,34.03
2024-02-02T03:41:27.771Z,34.00
2024-02-02T03:42:27.822Z,34.05
2024-02-02T03:43:27.790Z,34.02
2024-02-02T03:44:27.791Z,34.03
2024-02-02T03:45:27.822Z,33.99
2024-02-02T03:46:27.793Z,34.00
2024-02-02T03:47:27.796Z,33.98
2024-02-02T03:48:27.905Z,33.98
2024-02-02T03:49:27.855Z,33.96
2024-02-02T03:50:27.821Z,33.98
2024-02-02T03:51:27.948Z,33.94
2024-02-02T03:52:32.881Z,33.94
2024-02-02T03:53:27.798Z,33.94
2024-02-02T03:54:27.839Z,33.94
2024-02-02T03:55:27.813Z,33.93
2024-02-02T03:56:27.812Z,33.92
2024-02-02T03:57:27.881Z,33.93
2024-02-02T03:58:27.820Z,33.89
2024-02-02T03:59:27.823Z,33.90
2024-02-02T04:00:27.937Z,33.89
2024-02-02T04:01:27.883Z,33.89
2024-02-02T04:02:27.911Z,33.89
2024-02-02T04:03:28.090Z,33.89
2024-02-02T04:04:28.065Z,33.85
2024-02-02T04:05:28.096Z,33.84
2024-02-02T04:06:28.115Z,33.86
2024-02-02T04:07:28.104Z,33.87
2024-02-02T04:08:28.173Z,33.84
2024-02-02T04:09:28.327Z,33.86
2024-02-02T04:10:28.229Z,33.87
2024-02-02T04:11:28.265Z,33.85
2024-02-02T04:12:31.482Z,33.78
2024-02-02T04:13:28.319Z,33.80
2024-02-02T04:14:28.356Z,33.84
2024-02-02T04:15:30.864Z,33.83
2024-02-02T04:16:28.336Z,33.77
2024-02-02T04:17:28.323Z,33.80
2024-02-02T04:18:28.460Z,33.87
2024-02-02T04:19:28.492Z,33.78
2024-02-02T04:20:28.325Z,33.84
2024-02-02T04:21:29.142Z,33.76
2024-02-02T04:22:28.343Z,33.76
2024-02-02T04:23:28.324Z,33.84
2024-02-02T04:24:28.395Z,33.79
2024-02-02T04:25:28.348Z,33.76
2024-02-02T04:26:28.367Z,33.75
2024-02-02T04:27:28.439Z,33.78
2024-02-02T04:28:28.361Z,33.75
2024-02-02T04:29:28.331Z,33.77
2024-02-02T04:30:28.376Z,33.80
2024-02-02T04:31:28.352Z,33.74
2024-02-02T04:32:30.286Z,33.75
2024-02-02T04:33:28.541Z,33.75
2024-02-02T04:34:28.564Z,33.74
2024-02-02T04:35:28.343Z,33.73
2024-02-02T04:36:28.478Z,33.67
2024-02-02T04:37:35.635Z,33.70
2024-02-02T04:38:28.373Z,33.71
2024-02-02T04:39:28.512Z,33.74
2024-02-02T04:40:28.373Z,33.69
2024-02-02T04:41:28.347Z,33.70
2024-02-02T04:42:33.523Z,33.71
2024-02-02T04:43:28.364Z,33.67
2024-02-02T04:44:28.360Z,33.70
2024-02-02T04:45:28.386Z,33.72
2024-02-02T04:46:28.377Z,33.69
2024-02-02T04:47:28.366Z,33.68
2024-02-02T04:48:28.489Z,33.67
2024-02-02T04:49:28.451Z,33.66
2024-02-02T04:50:28.405Z,33.69
2024-02-02T04:51:28.578Z,33.67
2024-02-02T04:52:36.351Z,33.70
2024-02-02T04:53:36.343Z,33.65
2024-02-02T04:54:36.368Z,33.69
2024-02-02T04:55:36.346Z,33.67
2024-02-02T04:56:36.333Z,33.70
2024-02-02T04:57:36.419Z,33.65
2024-02-02T04:58:36.344Z,33.62
2024-02-02T04:59:36.351Z,33.62
2024-02-02T05:00:36.425Z,33.62
2024-02-02T05:01:36.337Z,33.67
2024-02-02T05:02:36.353Z,33.59
2024-02-02T05:03:36.436Z,33.61
2024-02-02T05:04:36.453Z,33.62
2024-02-02T05:05:36.365Z,33.61
2024-02-02T05:06:36.430Z,33.61
2024-02-02T05:07:36.360Z,33.59
2024-02-02T05:08:36.380Z,33.64
2024-02-02T05:09:36.439Z,33.58
2024-02-02T05:10:36.375Z,33.59
2024-02-02T05:11:36.375Z,33.56
2024-02-02T05:12:36.429Z,33.57
2024-02-02T05:13:36.360Z,33.59
2024-02-02T05:14:36.355Z,33.54
2024-02-02T05:15:36.442Z,33.59
2024-02-02T05:16:36.387Z,33.56
2024-02-02T05:17:46.683Z,33.58
2024-02-02T05:18:36.661Z,33.57
2024-02-02T05:19:36.420Z,33.52
2024-02-02T05:20:36.379Z,33.59
2024-02-02T05:21:36.423Z,33.51
2024-02-02T05:22:36.387Z,33.52
2024-02-02T05:23:41.321Z,33.56
2024-02-02T05:24:45.050Z,33.54
2024-02-02T05:25:37.508Z,33.54
2024-02-02T05:26:36.407Z,33.54
2024-02-02T05:27:36.498Z,33.54
2024-02-02T05:28:36.410Z,33.49
2024-02-02T05:29:36.401Z,33.51
2024-02-02T05:30:36.465Z,33.50
2024-02-02T05:31:36.398Z,33.49
2024-02-02T05:32:41.513Z,33.51
2024-02-02T05:33:36.498Z,33.51
2024-02-02T05:34:36.539Z,33.51
2024-02-02T05:35:36.425Z,33.50
2024-02-02T05:36:36.471Z,33.49
2024-02-02T05:37:36.444Z,33.50
2024-02-02T05:38:36.432Z,33.45
2024-02-02T05:39:36.470Z,33.48
2024-02-02T05:40:36.432Z,33.47
2024-02-02T05:41:36.467Z,33.44
2024-02-02T05:42:36.553Z,33.46
2024-02-02T05:43:36.437Z,33.44
2024-02-02T05:44:36.444Z,33.37
2024-02-02T05:45:36.505Z,33.40
2024-02-02T05:46:38.060Z,33.44
2024-02-02T05:47:36.482Z,33.44
2024-02-02T05:48:36.622Z,33.43
2024-02-02T05:49:36.495Z,33.46
2024-02-02T05:50:36.518Z,33.44
2024-02-02T05:51:36.613Z,33.44
2024-02-02T05:52:36.512Z,33.39
2024-02-02T05:53:36.521Z,33.46
2024-02-02T05:54:36.679Z,33.40
2024-02-02T05:55:36.630Z,33.41
2024-02-02T05:56:36.605Z,33.41
2024-02-02T05:57:36.681Z,33.41
2024-02-02T05:58:36.637Z,33.40
2024-02-02T05:59:36.663Z,33.43
2024-02-02T06:00:36.825Z,33.40
2024-02-02T06:01:36.745Z,33.43
2024-02-02T06:02:36.712Z,33.42
2024-02-02T06:03:36.901Z,33.51
2024-02-02T06:04:36.796Z,33.41
2024-02-02T06:05:36.749Z,32.95
2024-02-02T06:06:36.959Z,32.14
2024-02-02T06:07:36.849Z,31.39
2024-02-02T06:08:36.908Z,30.90
2024-02-02T06:09:37.063Z,30.76
2024-02-02T06:10:37.040Z,30.25
2024-02-02T06:11:37.050Z,30.19
2024-02-02T06:12:37.147Z,30.57
2024-02-02T06:13:37.149Z,30.99
2024-02-02T06:14:37.203Z,31.53
2024-02-02T06:15:37.293Z,31.92
2024-02-02T06:16:37.316Z,32.11
2024-02-02T06:17:37.431Z,32.51
2024-02-02T06:18:37.639Z,32.59
2024-02-02T06:19:37.611Z,32.54
2024-02-02T06:20:37.552Z,32.49
2024-02-02T06:21:37.653Z,32.51
2024-02-02T06:22:37.682Z,32.46
2024-02-02T06:23:37.703Z,32.45
2024-02-02T06:24:37.825Z,32.37
2024-02-02T06:25:37.789Z,32.39
2024-02-02T06:26:37.873Z,32.36
2024-02-02T06:27:37.900Z,32.35
2024-02-02T06:28:37.954Z,32.33
2024-02-02T06:29:37.919Z,32.41
2024-02-02T06:30:38.091Z,32.34
2024-02-02T06:31:38.028Z,32.28
2024-02-02T06:32:38.027Z,32.25
2024-02-02T06:33:38.115Z,32.27
2024-02-02T06:34:38.145Z,32.24
2024-02-02T06:35:38.091Z,32.29
2024-02-02T06:36:38.231Z,32.40
2024-02-02T06:37:38.173Z,32.33
2024-02-02T06:38:39.162Z,32.35
2024-02-02T06:39:38.257Z,32.37
2024-02-02T06:40:38.232Z,32.53
2024-02-02T06:41:38.258Z,32.62
2024-02-02T06:42:38.319Z,32.63
2024-02-02T06:43:38.300Z,32.67
2024-02-02T06:44:38.328Z,32.83
2024-02-02T06:45:38.449Z,32.90
2024-02-02T06:46:38.391Z,33.05
2024-02-02T06:47:38.464Z,33.13
2024-02-02T06:48:38.518Z,33.27
2024-02-02T06:49:38.490Z,33.44
2024-02-02T06:50:38.472Z,33.34
2024-02-02T06:51:38.572Z,33.34
2024-02-02T06:52:38.548Z,33.44
2024-02-02T06:53:38.592Z,33.45
2024-02-02T06:54:38.652Z,33.42
2024-02-02T06:55:38.639Z,33.46
2024-02-02T06:56:38.605Z,33.38
2024-02-02T06:57:38.684Z,33.39
2024-02-02T06:58:38.676Z,33.52
2024-02-02T06:59:38.692Z,33.59
2024-02-02T07:00:38.946Z,34.14
2024-02-02T07:01:38.816Z,34.21
2024-02-02T07:02:38.754Z,34.33
2024-02-02T07:03:38.948Z,34.56
2024-02-02T07:04:38.924Z,34.84
2024-02-02T07:05:38.845Z,35.01
2024-02-02T07:06:38.913Z,35.01
2024-02-02T07:07:38.904Z,34.92
2024-02-02T07:08:38.950Z,35.22
2024-02-02T07:09:39.062Z,35.43
2024-02-02T07:10:39.018Z,35.61
2024-02-02T07:11:39.018Z,36.12
2024-02-02T07:12:39.157Z,36.13
2024-02-02T07:13:39.108Z,36.22
2024-02-02T07:14:39.194Z,36.40
2024-02-02T07:15:39.279Z,36.35
2024-02-02T07:16:39.343Z,36.50
2024-02-02T07:17:39.407Z,36.52
2024-02-02T07:18:39.496Z,36.57
2024-02-02T07:19:39.522Z,36.51
2024-02-02T07:20:39.497Z,36.58
2024-02-02T07:21:39.608Z,36.61
2024-02-02T07:22:39.616Z,36.58
2024-02-02T07:23:39.655Z,36.57
2024-02-02T07:24:39.738Z,36.65
2024-02-02T07:25:39.728Z,36.80
2024-02-02T07:26:39.801Z,36.92
2024-02-02T07:27:39.884Z,36.95
2024-02-02T07:28:39.912Z,36.98
2024-02-02T07:29:39.961Z,37.07
2024-02-02T07:30:40.081Z,37.13
2024-02-02T07:31:40.122Z,37.18
2024-02-02T07:32:40.239Z,37.25
2024-02-02T07:33:40.383Z,37.24
2024-02-02T07:34:40.286Z,37.34
2024-02-02T07:35:40.252Z,37.43
2024-02-02T07:36:40.387Z,37.51
2024-02-02T07:37:40.343Z,37.55
2024-02-02T07:38:40.388Z,37.69
2024-02-02T07:39:40.422Z,37.81
2024-02-02T07:40:40.540Z,37.74
2024-02-02T07:41:40.484Z,37.74
2024-02-02T07:42:47.894Z,37.81
2024-02-02T07:43:41.538Z,37.86
2024-02-02T07:44:40.515Z,37.89
2024-02-02T07:45:40.562Z,37.91
2024-02-02T07:46:40.534Z,38.05
2024-02-02T07:47:40.564Z,38.17
2024-02-02T07:48:40.719Z,38.17
2024-02-02T07:49:40.598Z,38.16
2024-02-02T07:50:40.568Z,38.25
2024-02-02T07:51:40.582Z,38.45
2024-02-02T07:52:40.533Z,38.40
2024-02-02T07:53:40.595Z,38.27
2024-02-02T07:54:40.633Z,38.21
2024-02-02T07:55:40.546Z,37.67
2024-02-02T07:56:40.554Z,36.30
2024-02-02T07:57:40.614Z,36.98
2024-02-02T07:58:40.589Z,37.09
2024-02-02T07:59:40.577Z,37.17
2024-02-02T08:00:41.753Z,37.08
2024-02-02T08:01:40.715Z,37.06
2024-02-02T08:02:40.738Z,37.32
2024-02-02T08:03:40.827Z,37.40
2024-02-02T08:04:40.846Z,37.52
2024-02-02T08:05:40.847Z,37.64
2024-02-02T08:06:40.947Z,37.72
2024-02-02T08:07:40.931Z,37.78
2024-02-02T08:08:41.001Z,37.95
2024-02-02T08:09:41.076Z,38.06
2024-02-02T08:10:41.002Z,38.16
2024-02-02T08:11:41.017Z,38.29
2024-02-02T08:12:41.113Z,38.37
2024-02-02T08:13:41.102Z,38.45
2024-02-02T08:14:41.161Z,38.89
2024-02-02T08:15:41.199Z,38.75
2024-02-02T08:16:41.145Z,39.02
2024-02-02T08:17:41.192Z,38.87
2024-02-02T08:18:41.448Z,39.10
2024-02-02T08:19:41.365Z,39.17
2024-02-02T08:20:41.283Z,39.15
2024-02-02T08:21:41.391Z,39.27
2024-02-02T08:22:41.446Z,39.54
2024-02-02T08:23:41.513Z,39.47
2024-02-02T08:24:41.567Z,39.60
2024-02-02T08:25:41.549Z,39.60
2024-02-02T08:26:41.584Z,39.70
2024-02-02T08:27:41.661Z,39.73
2024-02-02T08:28:48.581Z,39.84
2024-02-02T08:29:42.691Z,39.91
2024-02-02T08:30:41.784Z,39.97
2024-02-02T08:31:41.679Z,40.25
2024-02-02T08:32:41.702Z,40.39
2024-02-02T08:33:41.826Z,40.44
2024-02-02T08:34:41.836Z,40.44
2024-02-02T08:35:41.721Z,40.50
2024-02-02T08:36:41.721Z,40.53
2024-02-02T08:37:41.687Z,40.72
2024-02-02T08:38:41.743Z,40.96
2024-02-02T08:39:41.801Z,40.94
2024-02-02T08:40:41.921Z,40.92
2024-02-02T08:41:41.880Z,41.16
2024-02-02T08:42:41.950Z,41.02
2024-02-02T08:43:41.978Z,41.08
2024-02-02T08:44:42.022Z,41.25
2024-02-02T08:45:42.142Z,41.22
2024-02-02T08:46:42.130Z,41.40
2024-02-02T08:47:42.210Z,41.60
2024-02-02T08:48:42.424Z,41.47
2024-02-02T08:49:42.319Z,41.39
2024-02-02T08:50:42.361Z,36.85
2024-02-02T08:51:43.751Z,35.42
2024-02-02T08:52:42.472Z,35.49
2024-02-02T08:53:42.553Z,36.95
2024-02-02T08:54:42.597Z,37.77
2024-02-02T08:55:42.700Z,38.62
2024-02-02T08:56:43.710Z,38.58
2024-02-02T08:57:42.731Z,38.85
2024-02-02T08:58:42.773Z,39.00
2024-02-02T08:59:42.798Z,39.00
2024-02-02T09:00:43.215Z,39.11
2024-02-02T09:01:43.123Z,39.17
2024-02-02T09:02:42.898Z,39.30
2024-02-02T09:03:43.070Z,39.33
2024-02-02T09:04:42.989Z,39.37
2024-02-02T09:05:43.079Z,39.41
2024-02-02T09:06:43.338Z,39.43
2024-02-02T09:07:43.095Z,39.44
2024-02-02T09:08:43.141Z,39.50
2024-02-02T09:09:43.257Z,39.57
2024-02-02T09:10:43.245Z,39.57
2024-02-02T09:11:43.296Z,39.59
2024-02-02T09:12:43.415Z,39.66
2024-02-02T09:13:43.411Z,39.70
2024-02-02T09:14:43.469Z,39.70
2024-02-02T09:15:43.570Z,39.73
2024-02-02T09:16:43.620Z,39.76
2024-02-02T09:17:43.732Z,39.78
2024-02-02T09:18:43.731Z,39.79
2024-02-02T09:19:43.787Z,39.82
2024-02-02T09:20:44.056Z,39.85
2024-02-02T09:21:43.881Z,39.89
2024-02-02T09:22:43.950Z,39.84
2024-02-02T09:23:43.950Z,39.90
2024-02-02T09:24:44.274Z,39.92
2024-02-02T09:25:44.076Z,39.91
2024-02-02T09:26:44.110Z,40.02
2024-02-02T09:27:44.192Z,39.99
2024-02-02T09:28:44.239Z,40.09
2024-02-02T09:29:44.264Z,40.17
2024-02-02T09:30:44.379Z,40.16
2024-02-02T09:31:44.406Z,40.14
2024-02-02T09:32:45.320Z,40.20
2024-02-02T09:33:44.571Z,40.17
2024-02-02T09:34:44.606Z,40.19
2024-02-02T09:35:44.584Z,40.20
2024-02-02T09:36:44.739Z,40.23
2024-02-02T09:37:44.730Z,40.29
2024-02-02T09:38:44.765Z,40.26
2024-02-02T09:39:44.960Z,40.40
2024-02-02T09:40:44.848Z,40.38
2024-02-02T09:41:44.922Z,40.38
2024-02-02T09:42:44.973Z,40.38
2024-02-02T09:43:45.019Z,40.36
2024-02-02T09:44:45.070Z,40.39
2024-02-02T09:45:45.156Z,40.28
2024-02-02T09:46:45.191Z,40.41
2024-02-02T09:47:45.294Z,40.34
2024-02-02T09:48:45.441Z,40.41
2024-02-02T09:49:45.433Z,40.46
2024-02-02T09:50:45.424Z,40.54
2024-02-02T09:51:45.431Z,40.52
2024-02-02T09:52:45.469Z,40.79
2024-02-02T09:53:45.535Z,40.66
2024-02-02T09:54:45.561Z,40.95
2024-02-02T09:55:45.664Z,40.95
2024-02-02T09:56:45.668Z,40.81
2024-02-02T09:57:45.733Z,40.81
2024-02-02T09:58:45.761Z,40.71
2024-02-02T09:59:45.800Z,40.74
2024-02-02T10:00:45.884Z,40.47
2024-02-02T10:01:45.887Z,40.06
2024-02-02T10:02:45.964Z,40.06
2024-02-02T10:03:46.209Z,39.99
2024-02-02T10:04:46.052Z,40.10
2024-02-02T10:05:46.127Z,40.25
2024-02-02T10:06:46.219Z,40.35
2024-02-02T10:07:46.198Z,40.45
2024-02-02T10:08:46.235Z,40.53
2024-02-02T10:09:46.295Z,40.72
2024-02-02T10:10:46.353Z,40.73
2024-02-02T10:11:46.388Z,40.80
2024-02-02T10:12:46.426Z,40.82
2024-02-02T10:13:46.491Z,40.86
2024-02-02T10:14:46.516Z,40.95
2024-02-02T10:15:46.764Z,40.95
2024-02-02T10:16:46.657Z,41.01
2024-02-02T10:17:46.740Z,41.00
2024-02-02T10:18:46.799Z,41.07
2024-02-02T10:19:46.929Z,41.05
2024-02-02T10:20:46.875Z,41.08
2024-02-02T10:21:46.965Z,41.15
2024-02-02T10:22:46.984Z,41.22
2024-02-02T10:23:47.061Z,41.29
2024-02-02T10:24:47.112Z,41.34
2024-02-02T10:25:47.147Z,41.48
2024-02-02T10:26:47.208Z,41.47
2024-02-02T10:27:47.257Z,41.52
2024-02-02T10:28:47.294Z,41.55
2024-02-02T10:29:47.359Z,41.70
2024-02-02T10:30:47.486Z,41.69
2024-02-02T10:31:47.448Z,41.74
2024-02-02T10:32:47.564Z,41.82
2024-02-02T10:33:47.649Z,41.92
2024-02-02T10:34:47.763Z,41.88
2024-02-02T10:35:47.657Z,41.98
2024-02-02T10:36:47.682Z,42.07
2024-02-02T10:37:47.752Z,42.07
2024-02-02T10:38:47.779Z,42.07
2024-02-02T10:39:47.826Z,42.18
2024-02-02T10:40:47.854Z,42.19
2024-02-02T10:41:52.061Z,42.25
2024-02-02T10:42:47.952Z,42.32
2024-02-02T10:43:47.930Z,42.55
2024-02-02T10:44:47.926Z,42.58
2024-02-02T10:45:47.946Z,41.34
2024-02-02T10:46:47.927Z,41.32
2024-02-02T10:47:47.989Z,41.48
2024-02-02T10:48:48.127Z,42.65
2024-02-02T10:49:48.012Z,41.45
2024-02-02T10:50:47.920Z,39.71
2024-02-02T10:51:47.944Z,38.68
2024-02-02T10:52:47.935Z,36.85
2024-02-02T10:53:47.945Z,37.33
2024-02-02T10:54:47.947Z,35.62
2024-02-02T10:55:47.987Z,37.39
2024-02-02T10:56:47.944Z,36.20
2024-02-02T10:57:47.967Z,36.44
2024-02-02T10:58:47.942Z,36.94
2024-02-02T10:59:47.943Z,37.13
2024-02-02T11:00:47.981Z,37.30
2024-02-02T11:01:47.997Z,37.47
2024-02-02T11:02:48.042Z,37.50
2024-02-02T11:03:48.207Z,37.74
2024-02-02T11:04:48.183Z,38.34
2024-02-02T11:05:48.229Z,38.20
2024-02-02T11:06:48.289Z,38.41
2024-02-02T11:07:48.306Z,38.61
2024-02-02T11:08:48.361Z,38.76
2024-02-02T11:09:48.390Z,38.91
2024-02-02T11:10:48.440Z,39.11
2024-02-02T11:11:48.478Z,39.18
2024-02-02T11:12:48.503Z,39.26
2024-02-02T11:13:48.586Z,39.52
2024-02-02T11:14:48.588Z,39.67
2024-02-02T11:15:48.603Z,39.74
2024-02-02T11:16:48.636Z,39.77
2024-02-02T11:17:48.774Z,39.97
2024-02-02T11:18:48.783Z,40.03
2024-02-02T11:19:48.888Z,40.08
2024-02-02T11:20:48.920Z,40.31
2024-02-02T11:21:48.749Z,40.39
2024-02-02T11:22:48.763Z,40.37
2024-02-02T11:23:48.794Z,40.51
2024-02-02T11:24:48.825Z,40.44
2024-02-02T11:25:48.879Z,40.61
2024-02-02T11:26:48.850Z,40.84
2024-02-02T11:27:48.865Z,40.81
2024-02-02T11:28:48.886Z,40.86
2024-02-02T11:29:48.914Z,40.93
2024-02-02T11:30:48.947Z,41.15
2024-02-02T11:31:48.985Z,41.31
2024-02-02T11:32:49.030Z,41.80
2024-02-02T11:33:49.145Z,41.95
2024-02-02T11:34:49.076Z,41.75
2024-02-02T11:35:49.106Z,41.83
2024-02-02T11:36:49.138Z,41.93
2024-02-02T11:37:49.188Z,42.26
2024-02-02T11:38:49.225Z,42.30
2024-02-02T11:39:49.298Z,42.19
2024-02-02T11:40:49.344Z,42.56
2024-02-02T11:41:49.398Z,42.39
2024-02-02T11:42:49.496Z,42.27
2024-02-02T11:43:49.466Z,42.42
2024-02-02T11:44:49.491Z,42.17
2024-02-02T11:45:49.530Z,42.35
2024-02-02T11:46:49.557Z,42.52
2024-02-02T11:47:49.590Z,42.34
2024-02-02T11:48:49.794Z,42.68
2024-02-02T11:49:49.691Z,43.02
2024-02-02T11:50:49.649Z,42.80
2024-02-02T11:51:49.687Z,43.09
2024-02-02T11:52:49.701Z,43.20
2024-02-02T11:53:49.761Z,43.50
2024-02-02T11:54:49.794Z,43.60
2024-02-02T11:55:49.810Z,44.17
2024-02-02T11:56:49.816Z,44.08
2024-02-02T11:57:49.840Z,44.21
2024-02-02T11:58:49.872Z,44.42
2024-02-02T11:59:53.410Z,44.35
2024-02-02T12:00:50.034Z,44.56
2024-02-02T12:01:50.064Z,44.53
2024-02-02T12:02:49.938Z,44.47
2024-02-02T12:03:50.072Z,44.49
2024-02-02T12:04:49.995Z,44.57
2024-02-02T12:05:49.963Z,44.58
2024-02-02T12:06:50.006Z,44.55
2024-02-02T12:07:50.045Z,44.54
2024-02-02T12:08:49.954Z,44.47
2024-02-02T12:09:49.957Z,44.47
2024-02-02T12:10:49.960Z,44.57
2024-02-02T12:11:49.962Z,44.68
2024-02-02T12:12:50.114Z,44.66
2024-02-02T12:13:49.986Z,44.76
2024-02-02T12:14:49.955Z,44.80
2024-02-02T12:15:50.041Z,44.88
2024-02-02T12:16:49.963Z,45.06
2024-02-02T12:17:49.974Z,45.02
2024-02-02T12:18:50.243Z,45.18
2024-02-02T12:19:50.306Z,45.27
2024-02-02T12:20:50.136Z,45.28
2024-02-02T12:21:50.195Z,45.30
2024-02-02T12:22:50.254Z,45.31
2024-02-02T12:23:50.313Z,45.39
2024-02-02T12:24:50.356Z,45.43
2024-02-02T12:25:50.426Z,45.51
2024-02-02T12:26:50.498Z,45.61
2024-02-02T12:27:50.532Z,45.57
2024-02-02T12:28:50.600Z,45.73
2024-02-02T12:29:50.652Z,45.77
2024-02-02T12:30:50.715Z,46.00
2024-02-02T12:31:50.773Z,46.17
2024-02-02T12:32:50.792Z,46.22
2024-02-02T12:33:50.974Z,46.43
2024-02-02T12:34:51.037Z,46.58
2024-02-02T12:35:51.268Z,46.85
2024-02-02T12:36:51.035Z,46.75
2024-02-02T12:37:51.070Z,46.54
2024-02-02T12:38:51.125Z,46.36
2024-02-02T12:39:51.191Z,46.25
2024-02-02T12:40:51.266Z,46.06
2024-02-02T12:41:51.345Z,45.98
2024-02-02T12:42:51.318Z,45.83
2024-02-02T12:43:51.356Z,45.99
2024-02-02T12:44:51.374Z,45.83
2024-02-02T12:45:51.452Z,45.81
2024-02-02T12:46:51.441Z,45.81
2024-02-02T12:47:51.573Z,45.77
2024-02-02T12:48:51.618Z,45.70
2024-02-02T12:49:51.642Z,45.78
2024-02-02T12:50:51.511Z,45.70
2024-02-02T12:51:51.597Z,45.88
2024-02-02T12:52:51.582Z,45.76